sensor_id;sensor_type;location;lat;lon;timestamp;pressure;altitude;pressure_sealevel;temperature;humidity
80321;BME280;69633;47.066;15.450;2023-09-19T00:00:38;97121.19;;;20.69;81.05
80321;BME280;69633;47.066;15.450;2023-09-19T00:03:05;97121.19;;;20.66;81.71
80321;BME280;69633;47.066;15.450;2023-09-19T00:05:34;97138.63;;;20.61;81.61
80321;BME280;69633;47.066;15.450;2023-09-19T00:08:01;97129.03;;;20.57;81.62
80321;BME280;69633;47.066;15.450;2023-09-19T00:10:28;97137.16;;;20.53;81.36
80321;BME280;69633;47.066;15.450;2023-09-19T00:12:59;97138.66;;;20.58;80.91
80321;BME280;69633;47.066;15.450;2023-09-19T00:15:26;97135.97;;;20.58;80.60
80321;BME280;69633;47.066;15.450;2023-09-19T00:17:57;97132.13;;;20.55;81.34
80321;BME280;69633;47.066;15.450;2023-09-19T00:20:23;97138.28;;;20.56;81.17
80321;BME280;69633;47.066;15.450;2023-09-19T00:22:50;97138.31;;;20.52;81.00
80321;BME280;69633;47.066;15.450;2023-09-19T00:25:19;97130.22;;;20.52;81.90
80321;BME280;69633;47.066;15.450;2023-09-19T00:27:45;97132.16;;;20.52;81.34
80321;BME280;69633;47.066;15.450;2023-09-19T00:30:17;97131.41;;;20.51;82.02
80321;BME280;69633;47.066;15.450;2023-09-19T00:32:49;97127.94;;;20.51;80.91
80321;BME280;69633;47.066;15.450;2023-09-19T00:35:17;97126.00;;;20.51;81.41
80321;BME280;69633;47.066;15.450;2023-09-19T00:37:43;97126.47;;;20.46;81.01
80321;BME280;69633;47.066;15.450;2023-09-19T00:40:09;97129.97;;;20.43;81.53
80321;BME280;69633;47.066;15.450;2023-09-19T00:42:45;97131.56;;;20.37;81.52
80321;BME280;69633;47.066;15.450;2023-09-19T00:45:13;97123.91;;;20.32;82.10
80321;BME280;69633;47.066;15.450;2023-09-19T00:47:44;97130.50;;;20.27;82.31
80321;BME280;69633;47.066;15.450;2023-09-19T00:50:11;97136.66;;;20.24;82.13
80321;BME280;69633;47.066;15.450;2023-09-19T00:52:40;97137.44;;;20.25;82.23
80321;BME280;69633;47.066;15.450;2023-09-19T00:55:10;97141.72;;;20.22;82.51
80321;BME280;69633;47.066;15.450;2023-09-19T00:57:37;97144.00;;;20.24;82.01
80321;BME280;69633;47.066;15.450;2023-09-19T01:00:04;97136.28;;;20.26;82.19
80321;BME280;69633;47.066;15.450;2023-09-19T01:02:34;97129.34;;;20.25;82.14
80321;BME280;69633;47.066;15.450;2023-09-19T01:05:00;97127.81;;;20.27;82.11
80321;BME280;69633;47.066;15.450;2023-09-19T01:07:30;97132.44;;;20.27;81.57
80321;BME280;69633;47.066;15.450;2023-09-19T01:10:00;97138.97;;;20.26;82.15
80321;BME280;69633;47.066;15.450;2023-09-19T01:31:57;97146.31;;;20.22;81.86
80321;BME280;69633;47.066;15.450;2023-09-19T01:34:26;97139.38;;;20.24;81.57
80321;BME280;69633;47.066;15.450;2023-09-19T01:36:52;97138.63;;;20.24;81.88
80321;BME280;69633;47.066;15.450;2023-09-19T01:39:17;97135.53;;;20.22;82.11
80321;BME280;69633;47.066;15.450;2023-09-19T01:41:56;97132.03;;;20.25;82.11
80321;BME280;69633;47.066;15.450;2023-09-19T01:44:33;97139.81;;;20.19;82.32
80321;BME280;69633;47.066;15.450;2023-09-19T01:47:04;97136.31;;;20.22;81.92
80321;BME280;69633;47.066;15.450;2023-09-19T01:49:56;97138.63;;;20.24;81.80
80321;BME280;69633;47.066;15.450;2023-09-19T01:52:30;97146.28;;;20.25;82.05
80321;BME280;69633;47.066;15.450;2023-09-19T01:55:05;97150.09;;;20.35;82.39
80321;BME280;69633;47.066;15.450;2023-09-19T01:57:37;97151.66;;;20.29;82.64
80321;BME280;69633;47.066;15.450;2023-09-19T02:00:10;97149.41;;;20.24;82.80
80321;BME280;69633;47.066;15.450;2023-09-19T02:02:42;97152.53;;;20.19;82.68
80321;BME280;69633;47.066;15.450;2023-09-19T02:05:10;97149.75;;;20.26;82.51
80321;BME280;69633;47.066;15.450;2023-09-19T02:07:35;97158.56;;;20.34;82.17
80321;BME280;69633;47.066;15.450;2023-09-19T02:10:06;97166.63;;;20.37;81.70
80321;BME280;69633;47.066;15.450;2023-09-19T02:12:33;97167.03;;;20.32;81.95
80321;BME280;69633;47.066;15.450;2023-09-19T02:14:58;97164.72;;;20.34;81.51
80321;BME280;69633;47.066;15.450;2023-09-19T02:17:25;97172.00;;;20.37;81.88
80321;BME280;69633;47.066;15.450;2023-09-19T02:19:55;97173.91;;;20.40;81.50
80321;BME280;69633;47.066;15.450;2023-09-19T02:22:21;97182.34;;;20.42;81.20
80321;BME280;69633;47.066;15.450;2023-09-19T02:24:48;97186.56;;;20.47;80.88
80321;BME280;69633;47.066;15.450;2023-09-19T02:27:14;97187.66;;;20.49;80.05
80321;BME280;69633;47.066;15.450;2023-09-19T02:29:42;97182.34;;;20.42;79.54
80321;BME280;69633;47.066;15.450;2023-09-19T02:32:07;97176.25;;;20.38;77.82
80321;BME280;69633;47.066;15.450;2023-09-19T02:34:35;97180.50;;;20.36;78.19
80321;BME280;69633;47.066;15.450;2023-09-19T02:37:05;97176.28;;;20.35;78.56
80321;BME280;69633;47.066;15.450;2023-09-19T02:39:32;97190.88;;;20.37;78.93
80321;BME280;69633;47.066;15.450;2023-09-19T02:41:58;97195.53;;;20.33;78.30
80321;BME280;69633;47.066;15.450;2023-09-19T02:44:23;97202.09;;;20.32;77.03
80321;BME280;69633;47.066;15.450;2023-09-19T02:46:49;97204.06;;;20.28;76.83
80321;BME280;69633;47.066;15.450;2023-09-19T02:49:15;97204.06;;;20.28;77.27
80321;BME280;69633;47.066;15.450;2023-09-19T02:51:40;97204.06;;;20.24;76.96
80321;BME280;69633;47.066;15.450;2023-09-19T02:54:06;97207.97;;;20.20;76.53
80321;BME280;69633;47.066;15.450;2023-09-19T02:56:32;97205.69;;;20.15;76.86
80321;BME280;69633;47.066;15.450;2023-09-19T02:58:58;97219.22;;;20.11;76.84
80321;BME280;69633;47.066;15.450;2023-09-19T03:01:25;97224.25;;;20.09;75.85
80321;BME280;69633;47.066;15.450;2023-09-19T03:03:52;97228.84;;;20.09;74.89
80321;BME280;69633;47.066;15.450;2023-09-19T03:06:18;97230.00;;;20.08;74.47
80321;BME280;69633;47.066;15.450;2023-09-19T03:08:46;97233.88;;;20.07;74.83
80321;BME280;69633;47.066;15.450;2023-09-19T03:11:12;97226.19;;;20.05;74.45
80321;BME280;69633;47.066;15.450;2023-09-19T03:13:40;97235.03;;;20.06;73.73
80321;BME280;69633;47.066;15.450;2023-09-19T03:16:08;97231.97;;;20.04;73.50
80321;BME280;69633;47.066;15.450;2023-09-19T03:18:36;97230.47;;;19.99;73.49
80321;BME280;69633;47.066;15.450;2023-09-19T03:21:02;97237.41;;;19.97;72.35
80321;BME280;69633;47.066;15.450;2023-09-19T03:23:28;97243.16;;;19.99;72.85
80321;BME280;69633;47.066;15.450;2023-09-19T03:25:57;97241.66;;;19.98;72.84
80321;BME280;69633;47.066;15.450;2023-09-19T03:28:24;97248.94;;;20.01;73.48
80321;BME280;69633;47.066;15.450;2023-09-19T03:31:03;97255.09;;;20.01;74.32
80321;BME280;69633;47.066;15.450;2023-09-19T03:33:29;97249.00;;;19.94;72.24
80321;BME280;69633;47.066;15.450;2023-09-19T03:35:57;97250.50;;;19.95;71.60
80321;BME280;69633;47.066;15.450;2023-09-19T03:38:23;97248.97;;;19.97;70.93
80321;BME280;69633;47.066;15.450;2023-09-19T03:40:49;97246.16;;;20.11;69.95
80321;BME280;69633;47.066;15.450;2023-09-19T03:43:14;97248.72;;;20.25;69.39
80321;BME280;69633;47.066;15.450;2023-09-19T03:45:40;97247.56;;;20.26;69.60
80321;BME280;69633;47.066;15.450;2023-09-19T03:48:10;97251.81;;;20.27;69.84
80321;BME280;69633;47.066;15.450;2023-09-19T03:50:35;97251.03;;;20.27;68.52
80321;BME280;69633;47.066;15.450;2023-09-19T03:53:01;97239.50;;;20.23;68.72
80321;BME280;69633;47.066;15.450;2023-09-19T03:55:27;97241.47;;;20.19;69.02
80321;BME280;69633;47.066;15.450;2023-09-19T03:57:53;97242.66;;;20.14;69.69
80321;BME280;69633;47.066;15.450;2023-09-19T04:00:19;97246.19;;;20.08;70.83
80321;BME280;69633;47.066;15.450;2023-09-19T04:02:48;97241.97;;;20.03;71.43
80321;BME280;69633;47.066;15.450;2023-09-19T04:05:14;97240.03;;;20.07;70.96
80321;BME280;69633;47.066;15.450;2023-09-19T04:07:39;97248.13;;;20.04;71.79
80321;BME280;69633;47.066;15.450;2023-09-19T04:10:05;97250.03;;;20.07;71.29
80321;BME280;69633;47.066;15.450;2023-09-19T04:12:34;97251.13;;;20.16;70.46
80321;BME280;69633;47.066;15.450;2023-09-19T04:14:59;97259.97;;;20.17;69.93
80321;BME280;69633;47.066;15.450;2023-09-19T04:17:25;97269.53;;;20.21;70.29
80321;BME280;69633;47.066;15.450;2023-09-19T04:19:50;97265.72;;;20.19;71.36
80321;BME280;69633;47.066;15.450;2023-09-19T04:22:15;97269.56;;;20.18;72.05
80321;BME280;69633;47.066;15.450;2023-09-19T04:24:41;97276.50;;;20.19;71.76
80321;BME280;69633;47.066;15.450;2023-09-19T04:27:06;97279.56;;;20.21;72.40
80321;BME280;69633;47.066;15.450;2023-09-19T04:29:32;97277.31;;;20.16;71.96
80321;BME280;69633;47.066;15.450;2023-09-19T04:31:58;97290.03;;;20.12;71.64
80321;BME280;69633;47.066;15.450;2023-09-19T04:34:23;97290.47;;;20.07;72.03
80321;BME280;69633;47.066;15.450;2023-09-19T04:36:49;97309.31;;;20.07;73.01
80321;BME280;69633;47.066;15.450;2023-09-19T04:39:15;97304.03;;;19.93;73.27
80321;BME280;69633;47.066;15.450;2023-09-19T04:41:42;97307.94;;;19.81;72.86
80321;BME280;69633;47.066;15.450;2023-09-19T04:44:07;97306.03;;;19.82;73.47
80321;BME280;69633;47.066;15.450;2023-09-19T04:46:36;97309.88;;;19.81;72.96
80321;BME280;69633;47.066;15.450;2023-09-19T04:49:01;97308.72;;;19.82;74.31
80321;BME280;69633;47.066;15.450;2023-09-19T04:51:27;97307.56;;;19.83;73.39
80321;BME280;69633;47.066;15.450;2023-09-19T04:53:58;97314.47;;;19.84;75.12
80321;BME280;69633;47.066;15.450;2023-09-19T04:56:23;97326.41;;;19.86;74.71
80321;BME280;69633;47.066;15.450;2023-09-19T04:58:49;97329.16;;;19.79;75.58
80321;BME280;69633;47.066;15.450;2023-09-19T05:01:14;97336.09;;;19.69;75.20
80321;BME280;69633;47.066;15.450;2023-09-19T05:03:40;97336.09;;;19.73;75.53
80321;BME280;69633;47.066;15.450;2023-09-19T05:06:06;97339.63;;;19.59;77.57
80321;BME280;69633;47.066;15.450;2023-09-19T05:08:31;97349.25;;;19.53;77.20
80321;BME280;69633;47.066;15.450;2023-09-19T05:10:57;97352.38;;;19.45;78.70
80321;BME280;69633;47.066;15.450;2023-09-19T05:13:22;97347.78;;;19.42;78.39
80321;BME280;69633;47.066;15.450;2023-09-19T05:15:50;97347.00;;;19.38;78.05
80321;BME280;69633;47.066;15.450;2023-09-19T05:18:16;97351.97;;;19.39;79.17
80321;BME280;69633;47.066;15.450;2023-09-19T05:20:41;97354.69;;;19.36;78.24
80321;BME280;69633;47.066;15.450;2023-09-19T05:23:08;97358.53;;;19.38;79.07
80321;BME280;69633;47.066;15.450;2023-09-19T05:25:35;97355.88;;;19.42;79.34
80321;BME280;69633;47.066;15.450;2023-09-19T05:28:08;97356.22;;;19.47;78.16
80321;BME280;69633;47.066;15.450;2023-09-19T05:30:35;97349.69;;;19.45;79.46
80321;BME280;69633;47.066;15.450;2023-09-19T05:33:08;97359.28;;;19.49;78.50
80321;BME280;69633;47.066;15.450;2023-09-19T05:35:34;97358.47;;;19.63;78.86
80321;BME280;69633;47.066;15.450;2023-09-19T05:38:02;97359.59;;;19.65;78.49
80321;BME280;69633;47.066;15.450;2023-09-19T05:40:27;97352.25;;;19.73;78.51
80321;BME280;69633;47.066;15.450;2023-09-19T05:42:53;97359.19;;;19.70;76.49
80321;BME280;69633;47.066;15.450;2023-09-19T05:45:18;97360.31;;;19.76;77.40
80321;BME280;69633;47.066;15.450;2023-09-19T05:47:48;97361.44;;;19.83;76.03
80321;BME280;69633;47.066;15.450;2023-09-19T05:50:14;97354.53;;;19.82;75.13
80321;BME280;69633;47.066;15.450;2023-09-19T05:52:41;97364.47;;;19.92;74.55
80321;BME280;69633;47.066;15.450;2023-09-19T05:55:08;97352.88;;;19.95;75.60
80321;BME280;69633;47.066;15.450;2023-09-19T05:57:34;97355.16;;;20.03;74.99
80321;BME280;69633;47.066;15.450;2023-09-19T06:00:00;97359.75;;;20.06;75.86
80321;BME280;69633;47.066;15.450;2023-09-19T06:02:26;97364.34;;;20.13;76.04
80321;BME280;69633;47.066;15.450;2023-09-19T06:04:55;97363.91;;;20.18;75.99
80321;BME280;69633;47.066;15.450;2023-09-19T06:07:22;97366.59;;;20.18;76.04
80321;BME280;69633;47.066;15.450;2023-09-19T06:09:48;97375.94;;;20.03;75.68
80321;BME280;69633;47.066;15.450;2023-09-19T06:12:13;97364.41;;;19.99;76.42
80321;BME280;69633;47.066;15.450;2023-09-19T06:14:40;97374.47;;;19.91;76.86
80321;BME280;69633;47.066;15.450;2023-09-19T06:17:06;97378.31;;;19.94;77.40
80321;BME280;69633;47.066;15.450;2023-09-19T06:19:31;97368.78;;;19.78;77.53
80321;BME280;69633;47.066;15.450;2023-09-19T06:21:58;97382.66;;;19.73;77.97
80321;BME280;69633;47.066;15.450;2023-09-19T06:24:24;97386.81;;;19.89;77.51
80321;BME280;69633;47.066;15.450;2023-09-19T06:26:50;97394.47;;;19.94;76.71
80321;BME280;69633;47.066;15.450;2023-09-19T06:29:18;97401.78;;;19.97;77.09
80321;BME280;69633;47.066;15.450;2023-09-19T06:31:43;97400.66;;;19.94;77.27
80321;BME280;69633;47.066;15.450;2023-09-19T06:34:10;97400.72;;;19.76;77.99
80321;BME280;69633;47.066;15.450;2023-09-19T06:36:35;97403.53;;;19.48;78.42
80321;BME280;69633;47.066;15.450;2023-09-19T06:39:01;97415.44;;;19.47;79.33
80321;BME280;69633;47.066;15.450;2023-09-19T06:41:29;97416.59;;;19.46;80.02
80321;BME280;69633;47.066;15.450;2023-09-19T06:43:55;97423.16;;;19.45;79.77
80321;BME280;69633;47.066;15.450;2023-09-19T06:46:20;97414.63;;;19.61;79.08
80321;BME280;69633;47.066;15.450;2023-09-19T06:48:46;97423.84;;;19.70;78.63
80321;BME280;69633;47.066;15.450;2023-09-19T06:51:13;97421.47;;;19.76;78.72
80321;BME280;69633;47.066;15.450;2023-09-19T06:53:41;97434.53;;;19.85;78.47
80321;BME280;69633;47.066;15.450;2023-09-19T06:56:06;97450.66;;;19.92;77.82
80321;BME280;69633;47.066;15.450;2023-09-19T06:58:32;97461.78;;;20.08;77.43
80321;BME280;69633;47.066;15.450;2023-09-19T07:00:57;97468.56;;;20.37;76.57
80321;BME280;69633;47.066;15.450;2023-09-19T07:03:22;97465.75;;;20.62;75.60
80321;BME280;69633;47.066;15.450;2023-09-19T07:05:52;97465.69;;;20.69;76.11
80321;BME280;69633;47.066;15.450;2023-09-19T07:08:18;97458.16;;;20.43;76.28
80321;BME280;69633;47.066;15.450;2023-09-19T07:10:45;97460.94;;;20.18;76.21
80321;BME280;69633;47.066;15.450;2023-09-19T07:13:14;97470.94;;;20.21;76.46
80321;BME280;69633;47.066;15.450;2023-09-19T07:15:43;97471.31;;;20.30;75.76
80321;BME280;69633;47.066;15.450;2023-09-19T07:18:18;97467.38;;;20.45;75.28
80321;BME280;69633;47.066;15.450;2023-09-19T07:20:45;97463.47;;;20.57;74.69
80321;BME280;69633;47.066;15.450;2023-09-19T07:25:44;97475.91;;;20.37;75.10
80321;BME280;69633;47.066;15.450;2023-09-19T07:28:09;97483.66;;;20.20;76.23
80321;BME280;69633;47.066;15.450;2023-09-19T07:30:37;97485.25;;;20.07;76.07
80321;BME280;69633;47.066;15.450;2023-09-19T07:33:05;97491.44;;;20.01;76.77
80321;BME280;69633;47.066;15.450;2023-09-19T07:35:31;97488.38;;;19.95;77.06
80321;BME280;69633;47.066;15.450;2023-09-19T07:37:56;97504.94;;;20.01;77.52
80321;BME280;69633;47.066;15.450;2023-09-19T07:40:24;97498.03;;;19.93;77.32
80321;BME280;69633;47.066;15.450;2023-09-19T07:42:52;97503.03;;;19.87;77.01
80321;BME280;69633;47.066;15.450;2023-09-19T07:45:18;97496.88;;;19.94;76.76
80321;BME280;69633;47.066;15.450;2023-09-19T07:47:44;97503.00;;;19.98;76.80
80321;BME280;69633;47.066;15.450;2023-09-19T07:50:10;97505.66;;;20.12;76.62
80321;BME280;69633;47.066;15.450;2023-09-19T07:52:36;97514.06;;;20.21;76.10
80321;BME280;69633;47.066;15.450;2023-09-19T07:55:05;97511.75;;;20.34;75.55
80321;BME280;69633;47.066;15.450;2023-09-19T07:57:36;97515.97;;;20.38;75.44
80321;BME280;69633;47.066;15.450;2023-09-19T08:00:02;97520.47;;;20.55;74.97
80321;BME280;69633;47.066;15.450;2023-09-19T08:02:34;97528.75;;;20.89;74.19
80321;BME280;69633;47.066;15.450;2023-09-19T08:04:59;97533.34;;;20.92;73.27
80321;BME280;69633;47.066;15.450;2023-09-19T08:07:26;97534.50;;;20.95;72.70
80321;BME280;69633;47.066;15.450;2023-09-19T08:09:53;97533.72;;;20.98;72.64
80321;BME280;69633;47.066;15.450;2023-09-19T08:12:19;97532.47;;;21.13;72.18
80321;BME280;69633;47.066;15.450;2023-09-19T08:14:49;97524.13;;;21.41;71.11
80321;BME280;69633;47.066;15.450;2023-09-19T08:17:15;97534.22;;;21.75;70.10
80321;BME280;69633;47.066;15.450;2023-09-19T08:19:40;97530.44;;;21.68;70.31
80321;BME280;69633;47.066;15.450;2023-09-19T08:22:07;97535.38;;;22.14;69.18
80321;BME280;69633;47.066;15.450;2023-09-19T08:24:35;97534.78;;;22.60;66.93
80321;BME280;69633;47.066;15.450;2023-09-19T08:27:01;97531.38;;;22.26;67.54
80321;BME280;69633;47.066;15.450;2023-09-19T08:29:30;97540.81;;;22.11;67.25
80321;BME280;69633;47.066;15.450;2023-09-19T08:31:57;97532.91;;;21.90;68.09
80321;BME280;69633;47.066;15.450;2023-09-19T08:34:24;97529.66;;;22.05;67.09
80321;BME280;69633;47.066;15.450;2023-09-19T08:36:55;97544.56;;;22.21;65.02
80321;BME280;69633;47.066;15.450;2023-09-19T08:39:24;97540.88;;;22.38;65.45
80321;BME280;69633;47.066;15.450;2023-09-19T08:41:51;97538.81;;;22.49;64.94
80321;BME280;69633;47.066;15.450;2023-09-19T08:44:21;97534.16;;;22.49;65.54
80321;BME280;69633;47.066;15.450;2023-09-19T08:46:48;97531.34;;;22.87;65.17
80321;BME280;69633;47.066;15.450;2023-09-19T08:49:28;97540.19;;;23.14;64.68
80321;BME280;69633;47.066;15.450;2023-09-19T08:52:13;97540.94;;;22.91;65.26
80321;BME280;69633;47.066;15.450;2023-09-19T08:54:41;97530.06;;;23.45;63.71
80321;BME280;69633;47.066;15.450;2023-09-19T08:57:07;97533.53;;;24.08;61.21
80321;BME280;69633;47.066;15.450;2023-09-19T08:59:38;97551.34;;;24.48;60.51
80321;BME280;69633;47.066;15.450;2023-09-19T09:02:11;97553.16;;;24.55;60.03
80321;BME280;69633;47.066;15.450;2023-09-19T09:04:43;97555.31;;;24.99;56.89
80321;BME280;69633;47.066;15.450;2023-09-19T09:07:13;97542.84;;;25.34;55.55
80321;BME280;69633;47.066;15.450;2023-09-19T09:09:39;97553.38;;;25.32;55.89
80321;BME280;69633;47.066;15.450;2023-09-19T09:12:16;97549.44;;;25.49;53.58
80321;BME280;69633;47.066;15.450;2023-09-19T09:14:46;97542.25;;;25.88;53.75
80321;BME280;69633;47.066;15.450;2023-09-19T09:17:15;97542.22;;;26.04;51.29
80321;BME280;69633;47.066;15.450;2023-09-19T09:19:41;97539.88;;;25.90;52.19
80321;BME280;69633;47.066;15.450;2023-09-19T09:22:11;97549.19;;;25.28;54.34
80321;BME280;69633;47.066;15.450;2023-09-19T09:25:00;97551.00;;;25.18;52.71
80321;BME280;69633;47.066;15.450;2023-09-19T09:27:30;97556.25;;;24.93;53.82
80321;BME280;69633;47.066;15.450;2023-09-19T09:29:58;97551.44;;;24.81;54.91
80321;BME280;69633;47.066;15.450;2023-09-19T09:32:27;97551.47;;;24.97;54.58
80321;BME280;69633;47.066;15.450;2023-09-19T09:34:58;97552.50;;;25.03;54.30
80321;BME280;69633;47.066;15.450;2023-09-19T09:37:25;97539.59;;;24.91;54.74
80321;BME280;69633;47.066;15.450;2023-09-19T09:40:00;97548.19;;;24.70;55.52
80321;BME280;69633;47.066;15.450;2023-09-19T09:42:45;97556.22;;;24.57;56.56
80321;BME280;69633;47.066;15.450;2023-09-19T09:45:22;97553.41;;;24.44;57.87
80321;BME280;69633;47.066;15.450;2023-09-19T09:47:54;97562.19;;;24.48;58.42
80321;BME280;69633;47.066;15.450;2023-09-19T09:50:27;97559.84;;;24.31;58.93
80321;BME280;69633;47.066;15.450;2023-09-19T09:52:58;97562.53;;;24.11;59.77
80321;BME280;69633;47.066;15.450;2023-09-19T09:56:05;97558.28;;;23.90;61.07
80321;BME280;69633;47.066;15.450;2023-09-19T09:58:35;97554.75;;;23.93;61.22
80321;BME280;69633;47.066;15.450;2023-09-19T10:01:05;97557.09;;;23.72;62.06
80321;BME280;69633;47.066;15.450;2023-09-19T10:06:03;97566.97;;;24.44;59.81
80321;BME280;69633;47.066;15.450;2023-09-19T10:08:36;97570.59;;;24.74;58.74
80321;BME280;69633;47.066;15.450;2023-09-19T10:11:15;97569.63;;;24.84;58.66
80321;BME280;69633;47.066;15.450;2023-09-19T10:13:42;97572.47;;;25.13;55.84
80321;BME280;69633;47.066;15.450;2023-09-19T10:16:09;97565.06;;;24.97;56.40
80321;BME280;69633;47.066;15.450;2023-09-19T10:18:36;97566.00;;;24.71;57.51
80321;BME280;69633;47.066;15.450;2023-09-19T10:21:04;97571.53;;;24.47;58.44
80321;BME280;69633;47.066;15.450;2023-09-19T10:23:32;97572.25;;;24.51;57.87
80321;BME280;69633;47.066;15.450;2023-09-19T10:26:01;97574.88;;;24.55;57.31
80321;BME280;69633;47.066;15.450;2023-09-19T10:28:28;97572.34;;;24.84;56.68
80321;BME280;69633;47.066;15.450;2023-09-19T10:30:54;97575.88;;;24.81;55.90
80321;BME280;69633;47.066;15.450;2023-09-19T10:33:23;97571.50;;;24.67;56.68
80321;BME280;69633;47.066;15.450;2023-09-19T10:35:52;97573.06;;;25.04;57.18
80321;BME280;69633;47.066;15.450;2023-09-19T10:38:23;97566.94;;;25.00;55.98
80321;BME280;69633;47.066;15.450;2023-09-19T10:40:53;97572.34;;;24.84;55.95
80321;BME280;69633;47.066;15.450;2023-09-19T10:43:21;97564.19;;;24.64;56.07
80321;BME280;69633;47.066;15.450;2023-09-19T10:45:48;97558.88;;;25.13;55.63
80321;BME280;69633;47.066;15.450;2023-09-19T10:48:18;97567.38;;;25.63;54.27
80321;BME280;69633;47.066;15.450;2023-09-19T10:53:25;97562.81;;;25.60;53.56
80321;BME280;69633;47.066;15.450;2023-09-19T10:55:56;97560.66;;;25.35;52.45
80321;BME280;69633;47.066;15.450;2023-09-19T10:58:27;97550.53;;;24.87;52.94
80321;BME280;69633;47.066;15.450;2023-09-19T11:00:58;97553.09;;;24.75;53.38
80321;BME280;69633;47.066;15.450;2023-09-19T11:03:37;97553.34;;;24.84;55.19
80321;BME280;69633;47.066;15.450;2023-09-19T11:06:18;97546.88;;;24.94;55.16
80321;BME280;69633;47.066;15.450;2023-09-19T11:25:41;97556.59;;;25.60;50.47
80321;BME280;69633;47.066;15.450;2023-09-19T11:30:42;97551.41;;;25.33;48.71
80321;BME280;69633;47.066;15.450;2023-09-19T11:36:16;97542.06;;;25.34;49.08
80321;BME280;69633;47.066;15.450;2023-09-19T11:46:33;97541.38;;;26.74;48.46
80321;BME280;69633;47.066;15.450;2023-09-19T11:49:07;97539.03;;;27.01;47.49
80321;BME280;69633;47.066;15.450;2023-09-19T11:51:43;97542.81;;;27.29;46.09
80321;BME280;69633;47.066;15.450;2023-09-19T11:54:14;97532.66;;;27.29;45.97
80321;BME280;69633;47.066;15.450;2023-09-19T11:56:44;97527.75;;;27.24;45.32
80321;BME280;69633;47.066;15.450;2023-09-19T11:59:11;97530.31;;;26.94;44.41
80321;BME280;69633;47.066;15.450;2023-09-19T12:01:38;97525.50;;;26.85;45.42
80321;BME280;69633;47.066;15.450;2023-09-19T12:04:11;97526.59;;;27.13;45.17
80321;BME280;69633;47.066;15.450;2023-09-19T12:06:37;97526.97;;;27.36;45.24
80321;BME280;69633;47.066;15.450;2023-09-19T12:09:12;97517.06;;;27.77;45.23
80321;BME280;69633;47.066;15.450;2023-09-19T12:11:42;97516.00;;;27.96;44.17
80321;BME280;69633;47.066;15.450;2023-09-19T12:14:09;97506.84;;;27.90;44.27
80321;BME280;69633;47.066;15.450;2023-09-19T12:16:35;97515.13;;;27.65;44.53
80321;BME280;69633;47.066;15.450;2023-09-19T12:19:20;97498.41;;;27.75;43.85
80321;BME280;69633;47.066;15.450;2023-09-19T12:22:07;97499.31;;;28.16;43.10
80321;BME280;69633;47.066;15.450;2023-09-19T12:24:34;97499.66;;;28.27;43.09
80321;BME280;69633;47.066;15.450;2023-09-19T12:27:06;97504.50;;;28.01;43.91
80321;BME280;69633;47.066;15.450;2023-09-19T12:32:07;97496.88;;;28.40;42.93
80321;BME280;69633;47.066;15.450;2023-09-19T12:34:33;97495.94;;;28.64;42.58
80321;BME280;69633;47.066;15.450;2023-09-19T12:39:44;97512.91;;;29.66;41.22
80321;BME280;69633;47.066;15.450;2023-09-19T12:42:15;97499.16;;;30.30;38.99
80321;BME280;69633;47.066;15.450;2023-09-19T12:45:07;97511.75;;;30.55;38.43
80321;BME280;69633;47.066;15.450;2023-09-19T12:47:35;97496.63;;;30.17;38.65
80321;BME280;69633;47.066;15.450;2023-09-19T12:50:07;97509.13;;;30.69;38.46
80321;BME280;69633;47.066;15.450;2023-09-19T12:52:37;97507.09;;;31.98;36.24
80321;BME280;69633;47.066;15.450;2023-09-19T12:55:03;97503.03;;;31.93;35.74
80321;BME280;69633;47.066;15.450;2023-09-19T12:57:30;97497.31;;;31.82;35.70
80321;BME280;69633;47.066;15.450;2023-09-19T13:00:02;97500.88;;;32.12;34.76
80321;BME280;69633;47.066;15.450;2023-09-19T13:02:31;97499.69;;;31.51;35.17
80321;BME280;69633;47.066;15.450;2023-09-19T13:04:56;97513.81;;;31.11;36.40
80321;BME280;69633;47.066;15.450;2023-09-19T13:07:44;97512.13;;;31.99;34.88
80321;BME280;69633;47.066;15.450;2023-09-19T13:10:11;97505.09;;;32.86;33.89
80321;BME280;69633;47.066;15.450;2023-09-19T13:12:40;97500.94;;;32.47;34.04
80321;BME280;69633;47.066;15.450;2023-09-19T13:15:12;97500.22;;;31.64;34.59
80321;BME280;69633;47.066;15.450;2023-09-19T13:17:56;97502.56;;;30.67;36.41
80321;BME280;69633;47.066;15.450;2023-09-19T13:20:27;97520.31;;;30.30;37.59
80321;BME280;69633;47.066;15.450;2023-09-19T13:22:53;97514.88;;;29.39;38.34
80321;BME280;69633;47.066;15.450;2023-09-19T13:25:20;97514.41;;;28.91;39.35
80321;BME280;69633;47.066;15.450;2023-09-19T13:27:56;97503.88;;;28.50;40.11
80321;BME280;69633;47.066;15.450;2023-09-19T13:30:24;97510.97;;;27.95;41.01
80321;BME280;69633;47.066;15.450;2023-09-19T13:32:50;97504.91;;;28.12;41.29
80321;BME280;69633;47.066;15.450;2023-09-19T13:35:17;97503.03;;;28.62;40.94
80321;BME280;69633;47.066;15.450;2023-09-19T13:37:45;97498.00;;;29.58;39.19
80321;BME280;69633;47.066;15.450;2023-09-19T13:40:17;97493.53;;;29.24;39.32
80321;BME280;69633;47.066;15.450;2023-09-19T13:42:43;97507.34;;;28.72;40.70
80321;BME280;69633;47.066;15.450;2023-09-19T13:45:08;97504.50;;;28.45;41.02
80321;BME280;69633;47.066;15.450;2023-09-19T13:47:37;97502.59;;;28.32;41.37
80321;BME280;69633;47.066;15.450;2023-09-19T13:50:04;97494.06;;;28.52;41.20
80321;BME280;69633;47.066;15.450;2023-09-19T13:52:30;97489.88;;;28.39;41.23
80321;BME280;69633;47.066;15.450;2023-09-19T13:54:57;97489.16;;;28.16;42.01
80321;BME280;69633;47.066;15.450;2023-09-19T13:57:23;97487.97;;;28.05;42.19
80321;BME280;69633;47.066;15.450;2023-09-19T13:59:49;97497.16;;;27.89;42.63